sensor_id;sensor_type;location;lat;lon;timestamp;temperature;humidity
16625;DHT22;8426;48.496;9.098;2023-06-10T00:01:17;15.80;99.90
16625;DHT22;8426;48.496;9.098;2023-06-10T00:06:22;15.80;99.90
16625;DHT22;8426;48.496;9.098;2023-06-10T00:11:26;15.80;99.90
16625;DHT22;8426;48.496;9.098;2023-06-10T00:16:30;15.80;99.90
16625;DHT22;8426;48.496;9.098;2023-06-10T00:21:35;15.70;99.90
16625;DHT22;8426;48.496;9.098;2023-06-10T00:26:40;15.50;99.90
16625;DHT22;8426;48.496;9.098;2023-06-10T00:31:45;15.50;99.90
16625;DHT22;8426;48.496;9.098;2023-06-10T00:36:50;15.30;99.90
16625;DHT22;8426;48.496;9.098;2023-06-10T00:41:53;15.20;99.90
16625;DHT22;8426;48.496;9.098;2023-06-10T00:46:57;15.00;99.90
16625;DHT22;8426;48.496;9.098;2023-06-10T00:52:02;14.90;99.90
16625;DHT22;8426;48.496;9.098;2023-06-10T00:57:07;14.80;99.90
16625;DHT22;8426;48.496;9.098;2023-06-10T01:02:10;14.60;99.90
16625;DHT22;8426;48.496;9.098;2023-06-10T01:07:23;14.40;99.90
16625;DHT22;8426;48.496;9.098;2023-06-10T01:12:34;14.00;99.90
16625;DHT22;8426;48.496;9.098;2023-06-10T01:17:54;13.70;99.90
16625;DHT22;8426;48.496;9.098;2023-06-10T01:22:59;13.40;99.90
16625;DHT22;8426;48.496;9.098;2023-06-10T01:28:10;13.30;99.90
16625;DHT22;8426;48.496;9.098;2023-06-10T01:33:25;13.30;99.90
16625;DHT22;8426;48.496;9.098;2023-06-10T01:38:33;13.30;99.90
16625;DHT22;8426;48.496;9.098;2023-06-10T01:43:39;13.20;99.90
16625;DHT22;8426;48.496;9.098;2023-06-10T01:48:43;13.10;99.90
16625;DHT22;8426;48.496;9.098;2023-06-10T01:53:48;12.90;99.90
16625;DHT22;8426;48.496;9.098;2023-06-10T01:58:51;12.80;99.90
16625;DHT22;8426;48.496;9.098;2023-06-10T02:03:57;12.80;99.90
16625;DHT22;8426;48.496;9.098;2023-06-10T02:09:02;12.70;99.90
16625;DHT22;8426;48.496;9.098;2023-06-10T02:14:05;12.70;99.90
16625;DHT22;8426;48.496;9.098;2023-06-10T02:19:09;12.70;99.90
16625;DHT22;8426;48.496;9.098;2023-06-10T02:24:14;12.60;99.90
16625;DHT22;8426;48.496;9.098;2023-06-10T02:29:18;12.60;99.90
16625;DHT22;8426;48.496;9.098;2023-06-10T02:34:22;12.60;99.90
16625;DHT22;8426;48.496;9.098;2023-06-10T02:39:28;12.50;99.90
16625;DHT22;8426;48.496;9.098;2023-06-10T02:44:31;12.40;99.90
16625;DHT22;8426;48.496;9.098;2023-06-10T02:49:36;12.30;99.90
16625;DHT22;8426;48.496;9.098;2023-06-10T02:54:41;12.30;99.90
16625;DHT22;8426;48.496;9.098;2023-06-10T02:59:44;12.30;99.90
16625;DHT22;8426;48.496;9.098;2023-06-10T03:04:48;12.20;99.90
16625;DHT22;8426;48.496;9.098;2023-06-10T03:09:54;12.10;99.90
16625;DHT22;8426;48.496;9.098;2023-06-10T03:14:57;12.00;99.90
16625;DHT22;8426;48.496;9.098;2023-06-10T03:20:01;12.00;99.90
16625;DHT22;8426;48.496;9.098;2023-06-10T03:25:08;12.00;99.90
16625;DHT22;8426;48.496;9.098;2023-06-10T03:30:16;12.00;99.90
16625;DHT22;8426;48.496;9.098;2023-06-10T03:35:21;11.90;99.90
16625;DHT22;8426;48.496;9.098;2023-06-10T03:40:25;12.00;99.90
16625;DHT22;8426;48.496;9.098;2023-06-10T03:45:29;11.90;99.90
16625;DHT22;8426;48.496;9.098;2023-06-10T03:50:32;11.90;99.90
16625;DHT22;8426;48.496;9.098;2023-06-10T03:55:37;12.00;99.90
16625;DHT22;8426;48.496;9.098;2023-06-10T04:00:41;12.10;99.90
16625;DHT22;8426;48.496;9.098;2023-06-10T04:05:46;12.20;99.90
16625;DHT22;8426;48.496;9.098;2023-06-10T04:10:52;12.40;99.90
16625;DHT22;8426;48.496;9.098;2023-06-10T04:15:55;12.50;99.90
16625;DHT22;8426;48.496;9.098;2023-06-10T04:20:58;12.60;99.90
16625;DHT22;8426;48.496;9.098;2023-06-10T04:26:04;12.70;99.90
16625;DHT22;8426;48.496;9.098;2023-06-10T04:31:10;12.90;99.90
16625;DHT22;8426;48.496;9.098;2023-06-10T04:36:13;13.10;99.90
16625;DHT22;8426;48.496;9.098;2023-06-10T04:41:21;13.40;99.90
16625;DHT22;8426;48.496;9.098;2023-06-10T04:46:24;13.60;99.90
16625;DHT22;8426;48.496;9.098;2023-06-10T04:51:28;13.80;99.90
16625;DHT22;8426;48.496;9.098;2023-06-10T04:56:33;14.10;99.90
16625;DHT22;8426;48.496;9.098;2023-06-10T05:01:37;14.40;99.90
16625;DHT22;8426;48.496;9.098;2023-06-10T05:06:40;14.70;99.90
16625;DHT22;8426;48.496;9.098;2023-06-10T05:11:45;15.00;99.90
16625;DHT22;8426;48.496;9.098;2023-06-10T05:16:48;15.30;99.90
16625;DHT22;8426;48.496;9.098;2023-06-10T05:21:52;15.50;99.90
16625;DHT22;8426;48.496;9.098;2023-06-10T05:26:59;15.60;99.90
16625;DHT22;8426;48.496;9.098;2023-06-10T05:32:03;15.60;99.90
16625;DHT22;8426;48.496;9.098;2023-06-10T05:37:07;15.80;99.90
16625;DHT22;8426;48.496;9.098;2023-06-10T05:42:11;16.10;99.90
16625;DHT22;8426;48.496;9.098;2023-06-10T05:47:17;19.50;99.90
16625;DHT22;8426;48.496;9.098;2023-06-10T05:52:21;23.40;99.90
16625;DHT22;8426;48.496;9.098;2023-06-10T05:57:28;26.10;99.90
16625;DHT22;8426;48.496;9.098;2023-06-10T06:02:32;28.80;99.90
16625;DHT22;8426;48.496;9.098;2023-06-10T06:07:35;29.30;96.00
16625;DHT22;8426;48.496;9.098;2023-06-10T06:12:42;30.90;93.20
16625;DHT22;8426;48.496;9.098;2023-06-10T06:17:46;31.60;91.50
16625;DHT22;8426;48.496;9.098;2023-06-10T06:22:49;32.20;90.40
16625;DHT22;8426;48.496;9.098;2023-06-10T06:27:54;32.00;88.40
16625;DHT22;8426;48.496;9.098;2023-06-10T06:32:57;32.10;89.00
16625;DHT22;8426;48.496;9.098;2023-06-10T06:38:01;33.60;87.20
16625;DHT22;8426;48.496;9.098;2023-06-10T06:43:07;33.80;85.40
16625;DHT22;8426;48.496;9.098;2023-06-10T06:48:11;33.80;84.50
16625;DHT22;8426;48.496;9.098;2023-06-10T06:53:15;34.00;84.10
16625;DHT22;8426;48.496;9.098;2023-06-10T06:58:19;33.90;84.40
16625;DHT22;8426;48.496;9.098;2023-06-10T07:03:23;33.90;82.90
16625;DHT22;8426;48.496;9.098;2023-06-10T07:08:26;36.00;79.70
16625;DHT22;8426;48.496;9.098;2023-06-10T07:13:33;34.90;80.40
16625;DHT22;8426;48.496;9.098;2023-06-10T07:18:37;33.80;82.20
16625;DHT22;8426;48.496;9.098;2023-06-10T07:23:42;34.10;81.80
16625;DHT22;8426;48.496;9.098;2023-06-10T07:28:50;33.90;81.70
16625;DHT22;8426;48.496;9.098;2023-06-10T07:33:53;34.60;84.60
16625;DHT22;8426;48.496;9.098;2023-06-10T07:38:59;35.10;79.90
16625;DHT22;8426;48.496;9.098;2023-06-10T07:44:04;35.20;78.70
16625;DHT22;8426;48.496;9.098;2023-06-10T07:49:07;35.00;80.20
16625;DHT22;8426;48.496;9.098;2023-06-10T07:54:11;35.60;79.30
16625;DHT22;8426;48.496;9.098;2023-06-10T07:59:20;34.70;79.20
16625;DHT22;8426;48.496;9.098;2023-06-10T08:04:23;34.20;81.90
16625;DHT22;8426;48.496;9.098;2023-06-10T08:09:27;35.20;82.30
16625;DHT22;8426;48.496;9.098;2023-06-10T08:14:32;35.30;81.40
16625;DHT22;8426;48.496;9.098;2023-06-10T08:19:37;35.20;81.80
16625;DHT22;8426;48.496;9.098;2023-06-10T08:24:41;34.90;79.50
16625;DHT22;8426;48.496;9.098;2023-06-10T08:29:45;35.10;80.40
16625;DHT22;8426;48.496;9.098;2023-06-10T08:34:49;34.60;79.20
16625;DHT22;8426;48.496;9.098;2023-06-10T08:39:52;34.60;79.90
16625;DHT22;8426;48.496;9.098;2023-06-10T08:45:01;33.80;80.90
16625;DHT22;8426;48.496;9.098;2023-06-10T08:50:05;34.10;83.80
16625;DHT22;8426;48.496;9.098;2023-06-10T08:55:18;33.90;82.10
16625;DHT22;8426;48.496;9.098;2023-06-10T09:00:26;33.10;83.70
16625;DHT22;8426;48.496;9.098;2023-06-10T09:05:33;33.40;82.60
16625;DHT22;8426;48.496;9.098;2023-06-10T09:10:39;32.80;83.60
16625;DHT22;8426;48.496;9.098;2023-06-10T09:15:44;31.70;84.00
16625;DHT22;8426;48.496;9.098;2023-06-10T09:20:49;32.00;84.30
16625;DHT22;8426;48.496;9.098;2023-06-10T09:25:56;32.50;85.10
16625;DHT22;8426;48.496;9.098;2023-06-10T09:31:06;32.50;85.10
16625;DHT22;8426;48.496;9.098;2023-06-10T09:36:11;33.20;83.40
16625;DHT22;8426;48.496;9.098;2023-06-10T09:41:14;32.90;84.30
16625;DHT22;8426;48.496;9.098;2023-06-10T09:46:21;31.80;84.30
16625;DHT22;8426;48.496;9.098;2023-06-10T09:51:26;32.00;85.50
16625;DHT22;8426;48.496;9.098;2023-06-10T09:56:34;32.90;84.90
16625;DHT22;8426;48.496;9.098;2023-06-10T10:01:39;32.30;83.60
16625;DHT22;8426;48.496;9.098;2023-06-10T10:06:43;30.80;85.90
16625;DHT22;8426;48.496;9.098;2023-06-10T10:11:48;31.00;87.00
16625;DHT22;8426;48.496;9.098;2023-06-10T10:16:54;31.10;86.80
16625;DHT22;8426;48.496;9.098;2023-06-10T10:22:03;30.80;86.10
16625;DHT22;8426;48.496;9.098;2023-06-10T10:27:14;31.10;84.60
16625;DHT22;8426;48.496;9.098;2023-06-10T10:32:26;31.10;86.00
16625;DHT22;8426;48.496;9.098;2023-06-10T10:37:32;30.20;84.00
16625;DHT22;8426;48.496;9.098;2023-06-10T10:42:37;30.70;85.10
16625;DHT22;8426;48.496;9.098;2023-06-10T10:47:46;30.30;88.20
16625;DHT22;8426;48.496;9.098;2023-06-10T10:52:53;29.90;86.60
16625;DHT22;8426;48.496;9.098;2023-06-10T10:57:59;29.00;88.80
16625;DHT22;8426;48.496;9.098;2023-06-10T11:03:07;29.70;88.40
16625;DHT22;8426;48.496;9.098;2023-06-10T11:08:12;29.50;88.20
16625;DHT22;8426;48.496;9.098;2023-06-10T11:13:19;28.60;89.80
16625;DHT22;8426;48.496;9.098;2023-06-10T11:18:28;29.50;86.50
16625;DHT22;8426;48.496;9.098;2023-06-10T11:23:38;29.00;85.20
16625;DHT22;8426;48.496;9.098;2023-06-10T11:29:04;27.90;91.30
16625;DHT22;8426;48.496;9.098;2023-06-10T11:34:10;29.00;89.00
16625;DHT22;8426;48.496;9.098;2023-06-10T11:39:14;29.30;89.20
16625;DHT22;8426;48.496;9.098;2023-06-10T11:44:18;30.00;85.80
16625;DHT22;8426;48.496;9.098;2023-06-10T11:49:24;28.90;87.00
16625;DHT22;8426;48.496;9.098;2023-06-10T11:54:28;27.70;90.10
16625;DHT22;8426;48.496;9.098;2023-06-10T11:59:33;28.00;90.30
16625;DHT22;8426;48.496;9.098;2023-06-10T12:04:38;29.30;86.70
16625;DHT22;8426;48.496;9.098;2023-06-10T12:09:42;30.70;85.70
16625;DHT22;8426;48.496;9.098;2023-06-10T12:14:53;29.70;88.10
16625;DHT22;8426;48.496;9.098;2023-06-10T12:20:02;28.70;89.30
16625;DHT22;8426;48.496;9.098;2023-06-10T12:25:09;28.10;90.00
16625;DHT22;8426;48.496;9.098;2023-06-10T12:30:19;28.10;90.10
16625;DHT22;8426;48.496;9.098;2023-06-10T12:35:26;29.40;86.00
16625;DHT22;8426;48.496;9.098;2023-06-10T12:40:30;29.90;88.90
16625;DHT22;8426;48.496;9.098;2023-06-10T12:45:35;29.90;85.50
16625;DHT22;8426;48.496;9.098;2023-06-10T12:50:44;29.40;85.60
16625;DHT22;8426;48.496;9.098;2023-06-10T12:55:49;29.60;86.40
16625;DHT22;8426;48.496;9.098;2023-06-10T13:00:55;29.80;85.10
16625;DHT22;8426;48.496;9.098;2023-06-10T13:06:00;29.90;83.90
16625;DHT22;8426;48.496;9.098;2023-06-10T13:11:03;30.40;84.20
16625;DHT22;8426;48.496;9.098;2023-06-10T13:16:07;29.40;84.30
16625;DHT22;8426;48.496;9.098;2023-06-10T13:21:11;29.00;87.00
16625;DHT22;8426;48.496;9.098;2023-06-10T13:26:15;29.10;85.20
16625;DHT22;8426;48.496;9.098;2023-06-10T13:31:18;29.00;85.20
16625;DHT22;8426;48.496;9.098;2023-06-10T13:36:24;29.30;87.00
16625;DHT22;8426;48.496;9.098;2023-06-10T13:41:29;29.50;84.10
16625;DHT22;8426;48.496;9.098;2023-06-10T13:46:32;29.90;84.60
16625;DHT22;8426;48.496;9.098;2023-06-10T13:51:37;30.00;83.60
16625;DHT22;8426;48.496;9.098;2023-06-10T13:56:41;29.80;83.90
16625;DHT22;8426;48.496;9.098;2023-06-10T14:01:44;29.40;86.50
16625;DHT22;8426;48.496;9.098;2023-06-10T14:06:50;30.00;84.90
16625;DHT22;8426;48.496;9.098;2023-06-10T14:11:53;29.60;84.90
16625;DHT22;8426;48.496;9.098;2023-06-10T14:16:57;28.70;87.70
16625;DHT22;8426;48.496;9.098;2023-06-10T14:22:04;29.20;85.50
16625;DHT22;8426;48.496;9.098;2023-06-10T14:27:09;29.00;83.90
16625;DHT22;8426;48.496;9.098;2023-06-10T14:32:12;28.50;84.90
16625;DHT22;8426;48.496;9.098;2023-06-10T14:37:18;27.90;86.10
16625;DHT22;8426;48.496;9.098;2023-06-10T14:42:24;27.80;86.80
16625;DHT22;8426;48.496;9.098;2023-06-10T14:47:27;27.90;86.90
16625;DHT22;8426;48.496;9.098;2023-06-10T14:52:33;27.90;86.60
16625;DHT22;8426;48.496;9.098;2023-06-10T14:57:37;28.00;88.60
16625;DHT22;8426;48.496;9.098;2023-06-10T15:02:40;28.70;88.20
16625;DHT22;8426;48.496;9.098;2023-06-10T15:07:45;29.00;85.30
16625;DHT22;8426;48.496;9.098;2023-06-10T15:12:49;29.00;86.70
16625;DHT22;8426;48.496;9.098;2023-06-10T15:17:57;28.90;88.30
16625;DHT22;8426;48.496;9.098;2023-06-10T15:23:04;28.40;87.30
16625;DHT22;8426;48.496;9.098;2023-06-10T15:28:10;28.50;86.70
16625;DHT22;8426;48.496;9.098;2023-06-10T15:33:13;28.90;86.20
16625;DHT22;8426;48.496;9.098;2023-06-10T15:38:18;28.90;88.80
16625;DHT22;8426;48.496;9.098;2023-06-10T15:43:24;28.40;88.60
16625;DHT22;8426;48.496;9.098;2023-06-10T15:48:27;27.40;90.70
16625;DHT22;8426;48.496;9.098;2023-06-10T15:53:33;27.20;91.20
16625;DHT22;8426;48.496;9.098;2023-06-10T15:58:37;27.40;91.30
16625;DHT22;8426;48.496;9.098;2023-06-10T16:03:41;27.40;91.40
16625;DHT22;8426;48.496;9.098;2023-06-10T16:08:46;27.20;91.40
16625;DHT22;8426;48.496;9.098;2023-06-10T16:13:50;27.40;91.40
16625;DHT22;8426;48.496;9.098;2023-06-10T16:18:53;27.20;91.60
16625;DHT22;8426;48.496;9.098;2023-06-10T16:23:58;26.70;91.00
16625;DHT22;8426;48.496;9.098;2023-06-10T16:29:02;26.50;91.60
16625;DHT22;8426;48.496;9.098;2023-06-10T16:34:06;26.40;91.80
16625;DHT22;8426;48.496;9.098;2023-06-10T16:39:10;26.60;91.70
16625;DHT22;8426;48.496;9.098;2023-06-10T16:44:20;26.80;91.50
16625;DHT22;8426;48.496;9.098;2023-06-10T16:49:23;26.80;91.90
16625;DHT22;8426;48.496;9.098;2023-06-10T16:54:31;26.80;91.80
16625;DHT22;8426;48.496;9.098;2023-06-10T16:59:35;26.70;92.00
16625;DHT22;8426;48.496;9.098;2023-06-10T17:04:38;26.70;92.00
16625;DHT22;8426;48.496;9.098;2023-06-10T17:09:43;26.80;92.00
16625;DHT22;8426;48.496;9.098;2023-06-10T17:14:47;26.60;92.00
16625;DHT22;8426;48.496;9.098;2023-06-10T17:19:51;26.60;91.50
16625;DHT22;8426;48.496;9.098;2023-06-10T17:25:02;26.40;91.30
16625;DHT22;8426;48.496;9.098;2023-06-10T17:30:07;26.40;91.00
16625;DHT22;8426;48.496;9.098;2023-06-10T17:35:11;26.50;91.30
16625;DHT22;8426;48.496;9.098;2023-06-10T17:40:16;26.30;91.40
16625;DHT22;8426;48.496;9.098;2023-06-10T17:45:20;26.10;92.00
16625;DHT22;8426;48.496;9.098;2023-06-10T17:50:23;26.00;91.70
16625;DHT22;8426;48.496;9.098;2023-06-10T17:55:29;25.80;91.60
16625;DHT22;8426;48.496;9.098;2023-06-10T18:00:33;25.80;91.80
16625;DHT22;8426;48.496;9.098;2023-06-10T18:05:37;25.90;91.20
16625;DHT22;8426;48.496;9.098;2023-06-10T18:10:41;26.00;91.60
16625;DHT22;8426;48.496;9.098;2023-06-10T18:15:45;26.10;91.40
16625;DHT22;8426;48.496;9.098;2023-06-10T18:20:49;26.20;91.80
16625;DHT22;8426;48.496;9.098;2023-06-10T18:25:54;25.90;92.20
16625;DHT22;8426;48.496;9.098;2023-06-10T18:30:59;25.60;92.50
16625;DHT22;8426;48.496;9.098;2023-06-10T18:36:03;25.40;93.00
16625;DHT22;8426;48.496;9.098;2023-06-10T18:41:09;25.10;93.80
16625;DHT22;8426;48.496;9.098;2023-06-10T18:46:12;24.70;94.20
16625;DHT22;8426;48.496;9.098;2023-06-10T18:51:16;24.40;94.20
16625;DHT22;8426;48.496;9.098;2023-06-10T18:56:23;24.30;94.10
16625;DHT22;8426;48.496;9.098;2023-06-10T19:01:28;24.00;94.40
16625;DHT22;8426;48.496;9.098;2023-06-10T19:06:32;23.90;94.70
16625;DHT22;8426;48.496;9.098;2023-06-10T19:11:37;23.70;95.30
16625;DHT22;8426;48.496;9.098;2023-06-10T19:16:40;23.60;95.70
16625;DHT22;8426;48.496;9.098;2023-06-10T19:21:44;23.30;96.30
16625;DHT22;8426;48.496;9.098;2023-06-10T19:26:49;23.10;96.80
16625;DHT22;8426;48.496;9.098;2023-06-10T19:32:16;22.90;97.10
16625;DHT22;8426;48.496;9.098;2023-06-10T19:37:20;22.70;97.40
16625;DHT22;8426;48.496;9.098;2023-06-10T19:42:25;22.60;98.00
16625;DHT22;8426;48.496;9.098;2023-06-10T19:47:28;22.40;98.00
16625;DHT22;8426;48.496;9.098;2023-06-10T19:52:33;22.30;98.40
16625;DHT22;8426;48.496;9.098;2023-06-10T19:57:38;22.10;98.50
16625;DHT22;8426;48.496;9.098;2023-06-10T20:02:41;22.00;98.70
16625;DHT22;8426;48.496;9.098;2023-06-10T20:07:45;21.70;99.40
16625;DHT22;8426;48.496;9.098;2023-06-10T20:12:50;21.60;99.70
16625;DHT22;8426;48.496;9.098;2023-06-10T20:17:53;21.40;99.60
16625;DHT22;8426;48.496;9.098;2023-06-10T20:22:57;21.40;99.60
16625;DHT22;8426;48.496;9.098;2023-06-10T20:28:02;21.30;99.90
16625;DHT22;8426;48.496;9.098;2023-06-10T20:33:07;21.20;99.90
16625;DHT22;8426;48.496;9.098;2023-06-10T20:38:10;21.00;99.90
16625;DHT22;8426;48.496;9.098;2023-06-10T20:43:16;20.80;99.90
16625;DHT22;8426;48.496;9.098;2023-06-10T20:48:47;20.80;99.90
16625;DHT22;8426;48.496;9.098;2023-06-10T20:53:51;20.90;99.90
16625;DHT22;8426;48.496;9.098;2023-06-10T20:58:55;21.00;99.90
16625;DHT22;8426;48.496;9.098;2023-06-10T21:03:59;21.00;99.90
16625;DHT22;8426;48.496;9.098;2023-06-10T21:09:02;20.90;99.90
16625;DHT22;8426;48.496;9.098;2023-06-10T21:14:07;20.70;99.90
16625;DHT22;8426;48.496;9.098;2023-06-10T21:19:11;20.60;99.90
16625;DHT22;8426;48.496;9.098;2023-06-10T21:24:18;20.30;99.90
16625;DHT22;8426;48.496;9.098;2023-06-10T21:29:26;20.00;99.90
16625;DHT22;8426;48.496;9.098;2023-06-10T21:34:30;19.70;99.90
16625;DHT22;8426;48.496;9.098;2023-06-10T21:39:33;19.60;99.90
16625;DHT22;8426;48.496;9.098;2023-06-10T21:44:38;19.70;99.90
16625;DHT22;8426;48.496;9.098;2023-06-10T21:49:42;19.80;99.90
16625;DHT22;8426;48.496;9.098;2023-06-10T21:54:52;19.70;99.90
16625;DHT22;8426;48.496;9.098;2023-06-10T21:59:59;19.60;99.90
16625;DHT22;8426;48.496;9.098;2023-06-10T22:05:04;19.60;99.90
16625;DHT22;8426;48.496;9.098;2023-06-10T22:10:09;19.50;99.90
16625;DHT22;8426;48.496;9.098;2023-06-10T22:15:14;19.50;99.90
16625;DHT22;8426;48.496;9.098;2023-06-10T22:20:18;19.30;99.90
16625;DHT22;8426;48.496;9.098;2023-06-10T22:25:23;19.20;99.90
16625;DHT22;8426;48.496;9.098;2023-06-10T22:30:29;19.10;99.90
16625;DHT22;8426;48.496;9.098;2023-06-10T22:35:34;18.80;99.90
16625;DHT22;8426;48.496;9.098;2023-06-10T22:40:38;18.50;99.90
16625;DHT22;8426;48.496;9.098;2023-06-10T22:45:42;18.40;99.90
16625;DHT22;8426;48.496;9.098;2023-06-10T22:50:46;18.60;99.90
16625;DHT22;8426;48.496;9.098;2023-06-10T22:55:49;18.60;99.90
16625;DHT22;8426;48.496;9.098;2023-06-10T23:00:55;18.60;99.90
16625;DHT22;8426;48.496;9.098;2023-06-10T23:05:58;18.60;99.90
16625;DHT22;8426;48.496;9.098;2023-06-10T23:11:02;18.60;99.90
16625;DHT22;8426;48.496;9.098;2023-06-10T23:16:07;18.40;99.90
16625;DHT22;8426;48.496;9.098;2023-06-10T23:21:11;18.20;99.90
16625;DHT22;8426;48.496;9.098;2023-06-10T23:26:17;18.10;99.90
16625;DHT22;8426;48.496;9.098;2023-06-10T23:31:22;18.00;99.90
16625;DHT22;8426;48.496;9.098;2023-06-10T23:36:26;17.90;99.90
16625;DHT22;8426;48.496;9.098;2023-06-10T23:41:29;17.90;99.90
16625;DHT22;8426;48.496;9.098;2023-06-10T23:46:36;17.80;99.90
16625;DHT22;8426;48.496;9.098;2023-06-10T23:51:40;17.60;99.90
16625;DHT22;8426;48.496;9.098;2023-06-10T23:56:43;17.60;99.90
